sensor_id;sensor_type;location;lat;lon;timestamp;P1;durP1;ratioP1;P2;durP2;ratioP2
23270;SDS011;11804;51.118;17.058;2023-06-14T00:02:04;6.10;;;2.90;;
23270;SDS011;11804;51.118;17.058;2023-06-14T00:04:33;4.87;;;3.10;;
23270;SDS011;11804;51.118;17.058;2023-06-14T00:07:01;4.93;;;3.07;;
23270;SDS011;11804;51.118;17.058;2023-06-14T00:09:28;3.93;;;2.63;;
23270;SDS011;11804;51.118;17.058;2023-06-14T00:11:56;7.00;;;3.73;;
23270;SDS011;11804;51.118;17.058;2023-06-14T00:14:24;4.97;;;3.30;;
23270;SDS011;11804;51.118;17.058;2023-06-14T00:16:51;5.87;;;3.70;;
23270;SDS011;11804;51.118;17.058;2023-06-14T00:19:20;4.60;;;3.13;;
23270;SDS011;11804;51.118;17.058;2023-06-14T00:21:48;4.47;;;3.20;;
23270;SDS011;11804;51.118;17.058;2023-06-14T00:24:19;4.57;;;3.07;;
23270;SDS011;11804;51.118;17.058;2023-06-14T00:26:46;7.33;;;3.50;;
23270;SDS011;11804;51.118;17.058;2023-06-14T00:29:14;5.87;;;3.30;;
23270;SDS011;11804;51.118;17.058;2023-06-14T00:31:45;5.77;;;3.40;;
23270;SDS011;11804;51.118;17.058;2023-06-14T00:34:12;6.87;;;3.60;;
23270;SDS011;11804;51.118;17.058;2023-06-14T00:36:40;5.23;;;3.37;;
23270;SDS011;11804;51.118;17.058;2023-06-14T00:39:08;5.47;;;3.27;;
23270;SDS011;11804;51.118;17.058;2023-06-14T00:41:36;5.23;;;3.07;;
23270;SDS011;11804;51.118;17.058;2023-06-14T00:44:05;4.93;;;3.07;;
23270;SDS011;11804;51.118;17.058;2023-06-14T00:46:33;4.77;;;3.20;;
23270;SDS011;11804;51.118;17.058;2023-06-14T00:49:01;4.37;;;2.97;;
23270;SDS011;11804;51.118;17.058;2023-06-14T00:51:29;4.33;;;3.17;;
23270;SDS011;11804;51.118;17.058;2023-06-14T00:53:56;4.90;;;2.90;;
23270;SDS011;11804;51.118;17.058;2023-06-14T00:56:24;6.70;;;3.63;;
23270;SDS011;11804;51.118;17.058;2023-06-14T00:58:53;6.10;;;2.80;;
23270;SDS011;11804;51.118;17.058;2023-06-14T01:01:24;5.57;;;3.30;;
23270;SDS011;11804;51.118;17.058;2023-06-14T01:03:51;5.07;;;3.13;;
23270;SDS011;11804;51.118;17.058;2023-06-14T01:09:27;4.20;;;2.77;;
23270;SDS011;11804;51.118;17.058;2023-06-14T01:14:26;3.53;;;2.77;;
23270;SDS011;11804;51.118;17.058;2023-06-14T01:16:55;4.17;;;2.87;;
23270;SDS011;11804;51.118;17.058;2023-06-14T01:19:26;4.17;;;2.77;;
23270;SDS011;11804;51.118;17.058;2023-06-14T01:21:55;4.77;;;2.87;;
23270;SDS011;11804;51.118;17.058;2023-06-14T01:24:23;5.03;;;3.17;;
23270;SDS011;11804;51.118;17.058;2023-06-14T01:26:53;4.33;;;2.87;;
23270;SDS011;11804;51.118;17.058;2023-06-14T01:29:24;3.93;;;2.70;;
23270;SDS011;11804;51.118;17.058;2023-06-14T01:31:54;3.37;;;2.70;;
23270;SDS011;11804;51.118;17.058;2023-06-14T01:34:22;5.47;;;2.87;;
23270;SDS011;11804;51.118;17.058;2023-06-14T01:36:50;4.70;;;3.20;;
23270;SDS011;11804;51.118;17.058;2023-06-14T01:39:18;6.20;;;3.40;;
23270;SDS011;11804;51.118;17.058;2023-06-14T01:41:47;6.30;;;2.90;;
23270;SDS011;11804;51.118;17.058;2023-06-14T01:44:16;5.63;;;3.40;;
23270;SDS011;11804;51.118;17.058;2023-06-14T01:46:46;5.87;;;3.10;;
23270;SDS011;11804;51.118;17.058;2023-06-14T01:49:15;5.23;;;3.53;;
23270;SDS011;11804;51.118;17.058;2023-06-14T01:51:48;4.97;;;3.30;;
23270;SDS011;11804;51.118;17.058;2023-06-14T01:54:15;6.37;;;3.10;;
23270;SDS011;11804;51.118;17.058;2023-06-14T01:56:43;4.10;;;2.90;;
23270;SDS011;11804;51.118;17.058;2023-06-14T01:59:10;6.77;;;3.23;;
23270;SDS011;11804;51.118;17.058;2023-06-14T02:01:38;5.30;;;3.13;;
23270;SDS011;11804;51.118;17.058;2023-06-14T02:04:06;5.10;;;3.47;;
23270;SDS011;11804;51.118;17.058;2023-06-14T02:06:34;4.83;;;3.60;;
23270;SDS011;11804;51.118;17.058;2023-06-14T02:09:02;6.17;;;3.23;;
23270;SDS011;11804;51.118;17.058;2023-06-14T02:11:29;4.73;;;2.80;;
23270;SDS011;11804;51.118;17.058;2023-06-14T02:13:57;6.17;;;3.87;;
23270;SDS011;11804;51.118;17.058;2023-06-14T02:16:26;5.37;;;3.10;;
23270;SDS011;11804;51.118;17.058;2023-06-14T02:18:55;6.27;;;3.43;;
23270;SDS011;11804;51.118;17.058;2023-06-14T02:21:22;6.87;;;3.83;;
23270;SDS011;11804;51.118;17.058;2023-06-14T02:23:50;8.13;;;3.60;;
23270;SDS011;11804;51.118;17.058;2023-06-14T02:26:18;6.37;;;3.87;;
23270;SDS011;11804;51.118;17.058;2023-06-14T02:28:46;6.00;;;3.47;;
23270;SDS011;11804;51.118;17.058;2023-06-14T02:31:14;7.90;;;3.77;;
23270;SDS011;11804;51.118;17.058;2023-06-14T02:33:42;6.00;;;3.03;;
23270;SDS011;11804;51.118;17.058;2023-06-14T02:36:09;6.33;;;3.40;;
23270;SDS011;11804;51.118;17.058;2023-06-14T02:38:37;4.37;;;3.33;;
23270;SDS011;11804;51.118;17.058;2023-06-14T02:41:04;5.97;;;3.67;;
23270;SDS011;11804;51.118;17.058;2023-06-14T02:43:32;4.60;;;3.57;;
23270;SDS011;11804;51.118;17.058;2023-06-14T02:46:00;6.67;;;3.77;;
23270;SDS011;11804;51.118;17.058;2023-06-14T02:48:28;5.83;;;3.40;;
23270;SDS011;11804;51.118;17.058;2023-06-14T02:50:56;5.77;;;3.77;;
23270;SDS011;11804;51.118;17.058;2023-06-14T02:53:24;5.70;;;3.83;;
23270;SDS011;11804;51.118;17.058;2023-06-14T02:55:51;6.77;;;3.70;;
23270;SDS011;11804;51.118;17.058;2023-06-14T02:58:21;6.30;;;3.83;;
23270;SDS011;11804;51.118;17.058;2023-06-14T03:00:50;5.30;;;3.47;;
23270;SDS011;11804;51.118;17.058;2023-06-14T03:03:19;5.33;;;3.30;;
23270;SDS011;11804;51.118;17.058;2023-06-14T03:05:47;4.57;;;3.43;;
23270;SDS011;11804;51.118;17.058;2023-06-14T03:08:16;5.87;;;3.50;;
23270;SDS011;11804;51.118;17.058;2023-06-14T03:10:49;5.07;;;3.43;;
23270;SDS011;11804;51.118;17.058;2023-06-14T03:13:17;6.00;;;3.83;;
23270;SDS011;11804;51.118;17.058;2023-06-14T03:15:48;5.33;;;3.90;;
23270;SDS011;11804;51.118;17.058;2023-06-14T03:18:16;7.60;;;4.00;;
23270;SDS011;11804;51.118;17.058;2023-06-14T03:20:45;6.50;;;4.10;;
23270;SDS011;11804;51.118;17.058;2023-06-14T03:23:12;7.57;;;3.30;;
23270;SDS011;11804;51.118;17.058;2023-06-14T03:25:41;6.80;;;3.97;;
23270;SDS011;11804;51.118;17.058;2023-06-14T03:28:10;5.63;;;3.43;;
23270;SDS011;11804;51.118;17.058;2023-06-14T03:30:38;5.53;;;3.13;;
23270;SDS011;11804;51.118;17.058;2023-06-14T03:33:05;6.30;;;3.77;;
23270;SDS011;11804;51.118;17.058;2023-06-14T03:35:34;5.00;;;3.50;;
23270;SDS011;11804;51.118;17.058;2023-06-14T03:38:05;6.07;;;3.60;;
23270;SDS011;11804;51.118;17.058;2023-06-14T03:40:32;5.43;;;3.80;;
23270;SDS011;11804;51.118;17.058;2023-06-14T03:43:00;7.43;;;3.97;;
23270;SDS011;11804;51.118;17.058;2023-06-14T03:45:30;6.00;;;3.53;;
23270;SDS011;11804;51.118;17.058;2023-06-14T03:47:58;7.47;;;4.13;;
23270;SDS011;11804;51.118;17.058;2023-06-14T03:50:26;5.80;;;3.93;;
23270;SDS011;11804;51.118;17.058;2023-06-14T03:52:54;5.37;;;3.40;;
23270;SDS011;11804;51.118;17.058;2023-06-14T03:55:21;4.37;;;3.23;;
23270;SDS011;11804;51.118;17.058;2023-06-14T03:57:51;6.00;;;3.93;;
23270;SDS011;11804;51.118;17.058;2023-06-14T04:00:19;6.80;;;4.00;;
23270;SDS011;11804;51.118;17.058;2023-06-14T04:02:46;6.93;;;3.80;;
23270;SDS011;11804;51.118;17.058;2023-06-14T04:05:17;5.80;;;3.57;;
23270;SDS011;11804;51.118;17.058;2023-06-14T04:07:45;4.70;;;3.37;;
23270;SDS011;11804;51.118;17.058;2023-06-14T04:10:16;5.80;;;3.63;;
23270;SDS011;11804;51.118;17.058;2023-06-14T04:12:46;6.50;;;4.10;;
23270;SDS011;11804;51.118;17.058;2023-06-14T04:15:16;5.70;;;3.73;;
23270;SDS011;11804;51.118;17.058;2023-06-14T04:17:44;7.97;;;4.30;;
23270;SDS011;11804;51.118;17.058;2023-06-14T04:20:12;7.77;;;4.00;;
23270;SDS011;11804;51.118;17.058;2023-06-14T04:22:39;6.17;;;3.53;;
23270;SDS011;11804;51.118;17.058;2023-06-14T04:25:09;8.70;;;4.23;;
23270;SDS011;11804;51.118;17.058;2023-06-14T04:27:37;5.33;;;3.50;;
23270;SDS011;11804;51.118;17.058;2023-06-14T04:30:05;8.17;;;4.67;;
23270;SDS011;11804;51.118;17.058;2023-06-14T04:32:34;5.13;;;3.60;;
23270;SDS011;11804;51.118;17.058;2023-06-14T04:35:08;4.97;;;3.50;;
23270;SDS011;11804;51.118;17.058;2023-06-14T04:37:36;5.07;;;3.70;;
23270;SDS011;11804;51.118;17.058;2023-06-14T04:40:06;5.57;;;3.67;;
23270;SDS011;11804;51.118;17.058;2023-06-14T04:42:37;4.90;;;3.50;;
23270;SDS011;11804;51.118;17.058;2023-06-14T04:45:06;5.13;;;3.73;;
23270;SDS011;11804;51.118;17.058;2023-06-14T04:47:36;6.13;;;3.77;;
23270;SDS011;11804;51.118;17.058;2023-06-14T04:50:06;5.77;;;3.60;;
23270;SDS011;11804;51.118;17.058;2023-06-14T04:52:36;8.13;;;4.50;;
23270;SDS011;11804;51.118;17.058;2023-06-14T04:55:03;10.10;;;4.47;;
23270;SDS011;11804;51.118;17.058;2023-06-14T04:57:32;7.67;;;4.37;;
23270;SDS011;11804;51.118;17.058;2023-06-14T05:00:00;7.77;;;4.80;;
23270;SDS011;11804;51.118;17.058;2023-06-14T05:02:30;7.50;;;4.50;;
23270;SDS011;11804;51.118;17.058;2023-06-14T05:04:58;8.70;;;4.33;;
23270;SDS011;11804;51.118;17.058;2023-06-14T05:07:27;8.77;;;4.60;;
23270;SDS011;11804;51.118;17.058;2023-06-14T05:09:54;9.23;;;4.90;;
23270;SDS011;11804;51.118;17.058;2023-06-14T05:12:22;7.00;;;4.60;;
23270;SDS011;11804;51.118;17.058;2023-06-14T05:14:51;9.30;;;5.87;;
23270;SDS011;11804;51.118;17.058;2023-06-14T05:17:18;8.10;;;4.43;;
23270;SDS011;11804;51.118;17.058;2023-06-14T05:19:46;8.23;;;4.90;;
23270;SDS011;11804;51.118;17.058;2023-06-14T05:22:14;8.40;;;5.23;;
23270;SDS011;11804;51.118;17.058;2023-06-14T05:24:41;10.70;;;5.13;;
23270;SDS011;11804;51.118;17.058;2023-06-14T05:27:10;8.67;;;5.67;;
23270;SDS011;11804;51.118;17.058;2023-06-14T05:29:38;9.53;;;5.27;;
23270;SDS011;11804;51.118;17.058;2023-06-14T05:32:07;15.93;;;6.23;;
23270;SDS011;11804;51.118;17.058;2023-06-14T05:34:35;11.37;;;5.80;;
23270;SDS011;11804;51.118;17.058;2023-06-14T05:37:04;14.20;;;6.63;;
23270;SDS011;11804;51.118;17.058;2023-06-14T05:39:32;17.37;;;6.67;;
23270;SDS011;11804;51.118;17.058;2023-06-14T05:42:00;9.47;;;5.60;;
23270;SDS011;11804;51.118;17.058;2023-06-14T05:44:27;10.23;;;5.80;;
23270;SDS011;11804;51.118;17.058;2023-06-14T05:46:56;10.43;;;6.17;;
23270;SDS011;11804;51.118;17.058;2023-06-14T05:49:24;9.97;;;7.00;;
23270;SDS011;11804;51.118;17.058;2023-06-14T05:51:51;9.53;;;5.70;;
23270;SDS011;11804;51.118;17.058;2023-06-14T05:54:19;9.63;;;6.10;;
23270;SDS011;11804;51.118;17.058;2023-06-14T05:56:47;10.40;;;5.77;;
23270;SDS011;11804;51.118;17.058;2023-06-14T05:59:16;12.17;;;6.13;;
23270;SDS011;11804;51.118;17.058;2023-06-14T06:01:43;10.73;;;6.87;;
23270;SDS011;11804;51.118;17.058;2023-06-14T06:04:12;12.63;;;6.10;;
23270;SDS011;11804;51.118;17.058;2023-06-14T06:06:40;14.23;;;7.87;;
23270;SDS011;11804;51.118;17.058;2023-06-14T06:09:07;9.90;;;5.53;;
23270;SDS011;11804;51.118;17.058;2023-06-14T06:11:35;10.37;;;6.10;;
23270;SDS011;11804;51.118;17.058;2023-06-14T06:14:02;11.27;;;5.53;;
23270;SDS011;11804;51.118;17.058;2023-06-14T06:16:30;9.03;;;5.37;;
23270;SDS011;11804;51.118;17.058;2023-06-14T06:18:57;9.88;;;5.90;;
23270;SDS011;11804;51.118;17.058;2023-06-14T06:21:26;9.70;;;5.83;;
23270;SDS011;11804;51.118;17.058;2023-06-14T06:23:53;8.55;;;5.37;;
23270;SDS011;11804;51.118;17.058;2023-06-14T06:26:21;9.38;;;5.08;;
23270;SDS011;11804;51.118;17.058;2023-06-14T06:28:49;8.95;;;5.37;;
23270;SDS011;11804;51.118;17.058;2023-06-14T06:31:17;11.00;;;6.10;;
23270;SDS011;11804;51.118;17.058;2023-06-14T06:33:44;10.88;;;5.37;;
23270;SDS011;11804;51.118;17.058;2023-06-14T06:36:12;12.40;;;5.87;;
23270;SDS011;11804;51.118;17.058;2023-06-14T06:38:40;9.88;;;6.03;;
23270;SDS011;11804;51.118;17.058;2023-06-14T06:41:09;10.17;;;5.20;;
23270;SDS011;11804;51.118;17.058;2023-06-14T06:43:37;10.08;;;5.35;;
23270;SDS011;11804;51.118;17.058;2023-06-14T06:46:05;8.88;;;5.37;;
23270;SDS011;11804;51.118;17.058;2023-06-14T06:48:32;7.97;;;5.33;;
23270;SDS011;11804;51.118;17.058;2023-06-14T06:51:02;8.45;;;5.30;;
23270;SDS011;11804;51.118;17.058;2023-06-14T06:53:31;11.75;;;6.70;;
23270;SDS011;11804;51.118;17.058;2023-06-14T06:55:58;14.43;;;6.78;;
23270;SDS011;11804;51.118;17.058;2023-06-14T06:58:26;10.57;;;6.73;;
23270;SDS011;11804;51.118;17.058;2023-06-14T07:00:54;12.93;;;6.58;;
23270;SDS011;11804;51.118;17.058;2023-06-14T07:03:22;11.37;;;6.57;;
23270;SDS011;11804;51.118;17.058;2023-06-14T07:05:49;10.13;;;6.63;;
23270;SDS011;11804;51.118;17.058;2023-06-14T07:08:18;12.23;;;6.30;;
23270;SDS011;11804;51.118;17.058;2023-06-14T07:10:46;9.25;;;5.67;;
23270;SDS011;11804;51.118;17.058;2023-06-14T07:13:13;11.00;;;5.95;;
23270;SDS011;11804;51.118;17.058;2023-06-14T07:15:42;9.40;;;5.87;;
23270;SDS011;11804;51.118;17.058;2023-06-14T07:18:09;9.43;;;6.00;;
23270;SDS011;11804;51.118;17.058;2023-06-14T07:20:37;11.45;;;6.40;;
23270;SDS011;11804;51.118;17.058;2023-06-14T07:23:08;12.82;;;5.97;;
23270;SDS011;11804;51.118;17.058;2023-06-14T07:25:36;9.78;;;5.45;;
23270;SDS011;11804;51.118;17.058;2023-06-14T07:28:04;9.78;;;5.62;;
23270;SDS011;11804;51.118;17.058;2023-06-14T07:30:32;10.43;;;6.28;;
23270;SDS011;11804;51.118;17.058;2023-06-14T07:33:00;7.25;;;5.50;;
23270;SDS011;11804;51.118;17.058;2023-06-14T07:35:27;8.33;;;5.37;;
23270;SDS011;11804;51.118;17.058;2023-06-14T07:37:55;7.50;;;5.37;;
23270;SDS011;11804;51.118;17.058;2023-06-14T07:40:23;8.03;;;5.92;;
23270;SDS011;11804;51.118;17.058;2023-06-14T07:42:50;9.50;;;6.28;;
23270;SDS011;11804;51.118;17.058;2023-06-14T07:45:19;9.35;;;5.67;;
23270;SDS011;11804;51.118;17.058;2023-06-14T07:47:47;7.42;;;5.47;;
23270;SDS011;11804;51.118;17.058;2023-06-14T07:50:15;7.42;;;5.33;;
23270;SDS011;11804;51.118;17.058;2023-06-14T07:52:43;8.40;;;5.42;;
23270;SDS011;11804;51.118;17.058;2023-06-14T07:55:12;20.50;;;6.08;;
23270;SDS011;11804;51.118;17.058;2023-06-14T07:57:41;7.95;;;5.53;;
23270;SDS011;11804;51.118;17.058;2023-06-14T08:00:10;8.80;;;5.35;;
23270;SDS011;11804;51.118;17.058;2023-06-14T08:02:44;9.75;;;6.05;;
23270;SDS011;11804;51.118;17.058;2023-06-14T08:05:14;7.05;;;5.22;;
23270;SDS011;11804;51.118;17.058;2023-06-14T08:07:45;9.28;;;5.67;;
23270;SDS011;11804;51.118;17.058;2023-06-14T08:10:12;6.53;;;4.95;;
23270;SDS011;11804;51.118;17.058;2023-06-14T08:12:39;7.03;;;4.78;;
23270;SDS011;11804;51.118;17.058;2023-06-14T08:15:10;7.62;;;5.42;;
23270;SDS011;11804;51.118;17.058;2023-06-14T08:17:39;7.08;;;5.22;;
23270;SDS011;11804;51.118;17.058;2023-06-14T08:20:09;5.90;;;4.55;;
23270;SDS011;11804;51.118;17.058;2023-06-14T08:22:36;6.92;;;4.90;;
23270;SDS011;11804;51.118;17.058;2023-06-14T08:25:07;7.97;;;5.10;;
23270;SDS011;11804;51.118;17.058;2023-06-14T08:27:38;7.15;;;5.17;;
23270;SDS011;11804;51.118;17.058;2023-06-14T08:30:06;6.87;;;5.17;;
23270;SDS011;11804;51.118;17.058;2023-06-14T08:32:35;7.65;;;4.97;;
23270;SDS011;11804;51.118;17.058;2023-06-14T08:35:03;8.48;;;5.35;;
23270;SDS011;11804;51.118;17.058;2023-06-14T08:37:33;8.70;;;5.50;;
23270;SDS011;11804;51.118;17.058;2023-06-14T08:40:02;8.25;;;5.65;;
23270;SDS011;11804;51.118;17.058;2023-06-14T08:42:32;11.73;;;5.30;;
23270;SDS011;11804;51.118;17.058;2023-06-14T08:45:00;6.83;;;5.05;;
23270;SDS011;11804;51.118;17.058;2023-06-14T08:47:30;8.03;;;5.20;;
23270;SDS011;11804;51.118;17.058;2023-06-14T08:50:02;8.00;;;5.30;;
23270;SDS011;11804;51.118;17.058;2023-06-14T08:52:36;6.60;;;4.20;;
23270;SDS011;11804;51.118;17.058;2023-06-14T08:55:09;8.38;;;4.55;;
23270;SDS011;11804;51.118;17.058;2023-06-14T08:57:38;7.10;;;5.10;;
23270;SDS011;11804;51.118;17.058;2023-06-14T09:00:09;9.43;;;5.62;;
23270;SDS011;11804;51.118;17.058;2023-06-14T09:02:39;6.83;;;4.80;;
23270;SDS011;11804;51.118;17.058;2023-06-14T09:05:11;7.47;;;4.97;;
23270;SDS011;11804;51.118;17.058;2023-06-14T09:07:44;7.37;;;4.55;;
23270;SDS011;11804;51.118;17.058;2023-06-14T09:10:14;6.50;;;4.33;;
23270;SDS011;11804;51.118;17.058;2023-06-14T09:12:42;7.60;;;4.60;;
23270;SDS011;11804;51.118;17.058;2023-06-14T09:15:10;8.33;;;5.03;;
23270;SDS011;11804;51.118;17.058;2023-06-14T09:17:39;8.20;;;5.80;;
23270;SDS011;11804;51.118;17.058;2023-06-14T09:20:09;9.00;;;4.90;;
23270;SDS011;11804;51.118;17.058;2023-06-14T09:22:38;7.53;;;4.80;;
23270;SDS011;11804;51.118;17.058;2023-06-14T09:25:07;9.18;;;5.03;;
23270;SDS011;11804;51.118;17.058;2023-06-14T09:27:35;8.73;;;4.92;;
23270;SDS011;11804;51.118;17.058;2023-06-14T09:30:05;7.65;;;4.70;;
23270;SDS011;11804;51.118;17.058;2023-06-14T09:32:38;6.30;;;4.28;;
23270;SDS011;11804;51.118;17.058;2023-06-14T09:35:07;9.90;;;5.10;;
23270;SDS011;11804;51.118;17.058;2023-06-14T09:37:35;8.95;;;4.42;;
23270;SDS011;11804;51.118;17.058;2023-06-14T09:40:04;5.67;;;4.40;;
23270;SDS011;11804;51.118;17.058;2023-06-14T09:42:33;5.62;;;3.80;;
23270;SDS011;11804;51.118;17.058;2023-06-14T09:45:02;5.45;;;3.67;;
23270;SDS011;11804;51.118;17.058;2023-06-14T09:47:31;5.95;;;4.05;;
23270;SDS011;11804;51.118;17.058;2023-06-14T09:49:59;5.53;;;3.37;;
23270;SDS011;11804;51.118;17.058;2023-06-14T09:52:28;6.20;;;4.12;;
23270;SDS011;11804;51.118;17.058;2023-06-14T09:54:56;4.78;;;3.52;;
23270;SDS011;11804;51.118;17.058;2023-06-14T09:57:26;6.85;;;4.17;;
23270;SDS011;11804;51.118;17.058;2023-06-14T09:59:57;9.25;;;4.10;;
23270;SDS011;11804;51.118;17.058;2023-06-14T10:02:28;6.87;;;3.77;;
23270;SDS011;11804;51.118;17.058;2023-06-14T10:05:08;5.22;;;3.50;;
23270;SDS011;11804;51.118;17.058;2023-06-14T10:07:38;9.20;;;4.08;;
23270;SDS011;11804;51.118;17.058;2023-06-14T10:10:21;5.78;;;3.33;;
23270;SDS011;11804;51.118;17.058;2023-06-14T10:12:49;5.53;;;3.25;;
23270;SDS011;11804;51.118;17.058;2023-06-14T10:15:26;5.10;;;3.40;;
23270;SDS011;11804;51.118;17.058;2023-06-14T10:18:00;5.15;;;3.22;;
23270;SDS011;11804;51.118;17.058;2023-06-14T10:20:44;4.00;;;3.02;;
23270;SDS011;11804;51.118;17.058;2023-06-14T10:23:30;4.58;;;2.98;;
23270;SDS011;11804;51.118;17.058;2023-06-14T10:26:01;4.85;;;2.92;;
23270;SDS011;11804;51.118;17.058;2023-06-14T10:28:29;7.35;;;3.42;;
23270;SDS011;11804;51.118;17.058;2023-06-14T10:33:35;5.30;;;2.90;;
23270;SDS011;11804;51.118;17.058;2023-06-14T10:36:28;3.17;;;2.52;;
23270;SDS011;11804;51.118;17.058;2023-06-14T10:38:58;3.60;;;2.72;;
23270;SDS011;11804;51.118;17.058;2023-06-14T10:41:28;3.95;;;2.90;;
23270;SDS011;11804;51.118;17.058;2023-06-14T10:46:53;3.37;;;2.70;;
23270;SDS011;11804;51.118;17.058;2023-06-14T10:49:39;4.12;;;3.15;;
23270;SDS011;11804;51.118;17.058;2023-06-14T10:52:09;5.67;;;3.47;;
23270;SDS011;11804;51.118;17.058;2023-06-14T10:57:38;4.62;;;3.12;;
23270;SDS011;11804;51.118;17.058;2023-06-14T11:00:10;3.52;;;2.42;;
23270;SDS011;11804;51.118;17.058;2023-06-14T11:05:20;33.83;;;9.58;;
23270;SDS011;11804;51.118;17.058;2023-06-14T11:10:54;12.73;;;4.37;;
23270;SDS011;11804;51.118;17.058;2023-06-14T11:13:25;16.95;;;3.37;;
23270;SDS011;11804;51.118;17.058;2023-06-14T11:15:54;5.03;;;2.58;;
23270;SDS011;11804;51.118;17.058;2023-06-14T11:18:23;3.10;;;2.45;;
23270;SDS011;11804;51.118;17.058;2023-06-14T11:20:53;3.20;;;2.35;;
23270;SDS011;11804;51.118;17.058;2023-06-14T11:23:21;3.55;;;2.27;;
23270;SDS011;11804;51.118;17.058;2023-06-14T11:25:54;3.80;;;2.58;;
23270;SDS011;11804;51.118;17.058;2023-06-14T11:28:18;2.87;;;2.35;;
23270;SDS011;11804;51.118;17.058;2023-06-14T11:30:49;3.62;;;2.30;;
23270;SDS011;11804;51.118;17.058;2023-06-14T11:33:30;3.20;;;2.52;;
23270;SDS011;11804;51.118;17.058;2023-06-14T11:35:57;3.98;;;2.25;;
23270;SDS011;11804;51.118;17.058;2023-06-14T11:38:25;7.50;;;2.50;;
23270;SDS011;11804;51.118;17.058;2023-06-14T11:40:53;3.98;;;2.60;;
23270;SDS011;11804;51.118;17.058;2023-06-14T11:43:22;6.10;;;3.02;;
23270;SDS011;11804;51.118;17.058;2023-06-14T11:45:52;3.80;;;2.42;;
23270;SDS011;11804;51.118;17.058;2023-06-14T11:48:22;4.33;;;2.62;;
23270;SDS011;11804;51.118;17.058;2023-06-14T11:50:52;2.02;;;1.72;;
23270;SDS011;11804;51.118;17.058;2023-06-14T11:53:20;3.85;;;2.22;;
23270;SDS011;11804;51.118;17.058;2023-06-14T11:55:48;4.53;;;2.98;;
23270;SDS011;11804;51.118;17.058;2023-06-14T11:58:18;3.35;;;2.33;;
23270;SDS011;11804;51.118;17.058;2023-06-14T12:00:48;2.70;;;2.00;;
23270;SDS011;11804;51.118;17.058;2023-06-14T12:03:18;5.58;;;2.55;;
23270;SDS011;11804;51.118;17.058;2023-06-14T12:06:01;2.95;;;1.92;;
23270;SDS011;11804;51.118;17.058;2023-06-14T12:08:38;3.30;;;2.50;;
23270;SDS011;11804;51.118;17.058;2023-06-14T12:11:06;3.95;;;2.37;;
23270;SDS011;11804;51.118;17.058;2023-06-14T12:13:39;2.52;;;2.20;;
23270;SDS011;11804;51.118;17.058;2023-06-14T12:16:08;3.65;;;2.15;;
23270;SDS011;11804;51.118;17.058;2023-06-14T12:18:37;6.72;;;3.00;;
23270;SDS011;11804;51.118;17.058;2023-06-14T12:21:07;5.25;;;3.05;;
23270;SDS011;11804;51.118;17.058;2023-06-14T12:23:39;7.17;;;2.72;;
23270;SDS011;11804;51.118;17.058;2023-06-14T12:26:20;4.65;;;2.80;;
23270;SDS011;11804;51.118;17.058;2023-06-14T12:28:45;4.35;;;2.37;;
23270;SDS011;11804;51.118;17.058;2023-06-14T12:31:14;10.82;;;4.00;;
23270;SDS011;11804;51.118;17.058;2023-06-14T12:33:44;4.95;;;3.10;;
23270;SDS011;11804;51.118;17.058;2023-06-14T12:36:14;7.65;;;3.98;;
23270;SDS011;11804;51.118;17.058;2023-06-14T12:38:43;6.35;;;3.65;;
23270;SDS011;11804;51.118;17.058;2023-06-14T12:41:12;4.78;;;3.00;;
23270;SDS011;11804;51.118;17.058;2023-06-14T12:43:46;10.50;;;4.55;;
23270;SDS011;11804;51.118;17.058;2023-06-14T12:46:11;5.15;;;3.65;;
23270;SDS011;11804;51.118;17.058;2023-06-14T12:48:38;12.47;;;3.92;;
23270;SDS011;11804;51.118;17.058;2023-06-14T12:51:08;5.28;;;3.22;;
23270;SDS011;11804;51.118;17.058;2023-06-14T12:53:36;4.30;;;3.17;;
23270;SDS011;11804;51.118;17.058;2023-06-14T12:56:04;5.83;;;3.30;;
23270;SDS011;11804;51.118;17.058;2023-06-14T12:58:32;4.75;;;3.15;;
23270;SDS011;11804;51.118;17.058;2023-06-14T13:01:00;4.22;;;2.62;;
23270;SDS011;11804;51.118;17.058;2023-06-14T13:03:28;4.05;;;2.87;;
23270;SDS011;11804;51.118;17.058;2023-06-14T13:05:56;4.12;;;3.25;;
23270;SDS011;11804;51.118;17.058;2023-06-14T13:08:23;4.90;;;3.05;;
23270;SDS011;11804;51.118;17.058;2023-06-14T13:10:51;5.10;;;3.75;;
23270;SDS011;11804;51.118;17.058;2023-06-14T13:13:18;3.85;;;3.27;;
23270;SDS011;11804;51.118;17.058;2023-06-14T13:15:46;5.08;;;3.67;;
23270;SDS011;11804;51.118;17.058;2023-06-14T13:18:15;4.22;;;3.40;;
23270;SDS011;11804;51.118;17.058;2023-06-14T13:20:45;4.33;;;2.70;;
23270;SDS011;11804;51.118;17.058;2023-06-14T13:23:13;4.37;;;3.22;;
23270;SDS011;11804;51.118;17.058;2023-06-14T13:25:42;7.67;;;3.00;;
23270;SDS011;11804;51.118;17.058;2023-06-14T13:28:10;4.33;;;3.27;;
23270;SDS011;11804;51.118;17.058;2023-06-14T13:30:37;6.08;;;3.37;;
23270;SDS011;11804;51.118;17.058;2023-06-14T13:33:05;4.72;;;3.25;;
23270;SDS011;11804;51.118;17.058;2023-06-14T13:35:34;4.80;;;3.05;;
23270;SDS011;11804;51.118;17.058;2023-06-14T13:38:02;5.03;;;2.72;;
23270;SDS011;11804;51.118;17.058;2023-06-14T13:40:30;4.95;;;2.90;;
23270;SDS011;11804;51.118;17.058;2023-06-14T13:42:57;7.62;;;3.77;;
23270;SDS011;11804;51.118;17.058;2023-06-14T13:45:25;4.25;;;3.10;;
23270;SDS011;11804;51.118;17.058;2023-06-14T13:47:53;4.97;;;3.20;;
23270;SDS011;11804;51.118;17.058;2023-06-14T13:50:22;8.38;;;3.92;;
23270;SDS011;11804;51.118;17.058;2023-06-14T13:52:51;4.50;;;3.00;;
23270;SDS011;11804;51.118;17.058;2023-06-14T13:55:19;4.58;;;2.92;;
23270;SDS011;11804;51.118;17.058;2023-06-14T13:57:47;4.55;;;2.85;;
23270;SDS011;11804;51.118;17.058;2023-06-14T14:00:14;3.35;;;2.90;;
23270;SDS011;11804;51.118;17.058;2023-06-14T14:02:43;4.30;;;2.77;;
23270;SDS011;11804;51.118;17.058;2023-06-14T14:05:11;5.50;;;3.08;;
23270;SDS011;11804;51.118;17.058;2023-06-14T14:07:40;4.50;;;3.25;;
23270;SDS011;11804;51.118;17.058;2023-06-14T14:10:07;3.85;;;2.95;;
23270;SDS011;11804;51.118;17.058;2023-06-14T14:12:38;4.50;;;2.85;;
23270;SDS011;11804;51.118;17.058;2023-06-14T14:15:06;2.40;;;2.20;;
23270;SDS011;11804;51.118;17.058;2023-06-14T14:17:36;5.50;;;2.10;;
23270;SDS011;11804;51.118;17.058;2023-06-14T14:20:05;4.30;;;2.80;;
23270;SDS011;11804;51.118;17.058;2023-06-14T14:22:33;4.15;;;2.15;;
23270;SDS011;11804;51.118;17.058;2023-06-14T14:25:01;3.77;;;2.50;;
23270;SDS011;11804;51.118;17.058;2023-06-14T14:27:28;3.75;;;2.25;;
23270;SDS011;11804;51.118;17.058;2023-06-14T14:29:56;2.90;;;2.25;;
23270;SDS011;11804;51.118;17.058;2023-06-14T14:32:24;2.30;;;1.77;;
23270;SDS011;11804;51.118;17.058;2023-06-14T14:34:53;4.90;;;2.17;;
23270;SDS011;11804;51.118;17.058;2023-06-14T14:37:20;2.52;;;2.10;;
23270;SDS011;11804;51.118;17.058;2023-06-14T14:39:48;2.92;;;2.22;;
23270;SDS011;11804;51.118;17.058;2023-06-14T14:42:15;2.20;;;1.82;;
23270;SDS011;11804;51.118;17.058;2023-06-14T14:44:44;7.47;;;4.78;;
23270;SDS011;11804;51.118;17.058;2023-06-14T14:47:15;4.55;;;2.52;;
23270;SDS011;11804;51.118;17.058;2023-06-14T14:49:42;4.15;;;2.92;;
23270;SDS011;11804;51.118;17.058;2023-06-14T14:52:10;5.53;;;2.93;;
23270;SDS011;11804;51.118;17.058;2023-06-14T14:54:39;4.62;;;2.77;;
23270;SDS011;11804;51.118;17.058;2023-06-14T14:57:06;4.30;;;2.87;;
23270;SDS011;11804;51.118;17.058;2023-06-14T14:59:36;5.65;;;3.02;;
23270;SDS011;11804;51.118;17.058;2023-06-14T15:02:03;3.58;;;2.90;;
23270;SDS011;11804;51.118;17.058;2023-06-14T15:04:32;3.27;;;2.77;;